D/T METAR WX W/SPE G/SPE TEMP DEWP FEEL
31/01/23 06:50 EGOS 310650Z AUTO 24013KT 9999 OVC023/// 09/07 Q1021 15.0mph 9°C 7°C 9.0°C
31/01/23 05:50 EGOS 310550Z AUTO 24016KT 9999 // FEW013/// OVC025/// 08/06 Q1021 18.4mph 8°C 6°C 7.6°C
31/01/23 04:20 EGOS 310420Z AUTO 25018KT 9999 FEW044/// SCT079/// 08/06 Q1022 20.7mph 8°C 6°C 7.6°C
30/01/23 21:50 EGOS 302150Z 21008KT 9999 SCT041 BKN073 06/03 Q1025 TEMPO BKN024 RMK BLU TEMPO WHT 9.2mph 6°C 3°C 4.7°C
30/01/23 12:50 EGOS 301250Z 30010KT 9999 FEW024 SCT040 08/02 Q1026 NOSIG RMK BLU BLU 11.5mph 8°C 2°C 6.4°C
30/01/23 11:50 EGOS 301150Z 27010KT 9999 FEW022 SCT030 08/02 Q1026 NOSIG RMK BLU BLU 11.5mph 8°C 2°C 6.4°C
30/01/23 10:50 EGOS 301050Z 26011KT 9999 SCT030 08/03 Q1026 NOSIG RMK BLU BLU 12.7mph 8°C 3°C 6.7°C
30/01/23 07:50 EGOS 300750Z AUTO 28010KT 9999 SCT030/// 05/01 Q1024 11.5mph 5°C 1°C 3.1°C
30/01/23 06:20 EGOS 300620Z AUTO 28010KT 9999 NCD 06/00 Q1022 11.5mph 6°C 0°C 3.8°C
09/01/23 06:20 EGOS 090620Z AUTO 23007KT 9999 -RA OVC023/// 05/03 Q0992 -RA 8.1mph 5°C 3°C 3.7°C
09/01/23 05:50 EGOS 090550Z AUTO 22006KT 9999 // FEW028/// 05/03 Q0992 6.9mph 5°C 3°C 3.7°C
09/01/23 05:20 EGOS 090520Z AUTO 23012KT 9999 -RA FEW024/// BKN038/// 05/03 Q0991 -RA 13.8mph 5°C 3°C 3.7°C
09/01/23 04:50 EGOS 090450Z AUTO 24007KT 9999 NCD 04/01 Q0991 8.1mph 4°C 1°C 2.1°C
09/01/23 04:20 EGOS 090420Z AUTO 25011KT 9999 NCD 05/02 Q0991 12.7mph 5°C 2°C 3.4°C
09/01/23 03:50 EGOS 090350Z AUTO 23006KT 9999 NCD 04/02 Q0990 6.9mph 4°C 2°C 2.4°C
09/01/23 03:20 EGOS 090320Z AUTO 24008KT 9999 NCD 04/03 Q0990 9.2mph 4°C 3°C 2.7°C
09/01/23 02:50 EGOS 090250Z AUTO 23007KT 9999 NCD 04/02 Q0990 8.1mph 4°C 2°C 2.4°C
09/01/23 02:20 EGOS 090220Z AUTO 26004KT 9999 SCT140/// 03/02 Q0989 4.6mph 3°C 2°C 1.4°C
09/01/23 01:20 EGOS 090120Z AUTO 21007KT 9999 NCD 04/03 Q0988 8.1mph 4°C 3°C 2.7°C
09/01/23 00:50 EGOS 090050Z AUTO 23008KT 9999 NCD 04/03 Q0988 9.2mph 4°C 3°C 2.7°C
09/01/23 00:20 EGOS 090020Z AUTO 24006KT 9999 NCD 04/03 Q0988 6.9mph 4°C 3°C 2.7°C
08/01/23 23:50 EGOS 082350Z AUTO 26006KT 9999 FEW042/// SCT180/// 03/02 Q0987 6.9mph 3°C 2°C 1.4°C
08/01/23 23:20 EGOS 082320Z AUTO 24003KT 9999 OVC180/// 02/01 Q0987 3.5mph 2°C 1°C 0.1°C
08/01/23 22:50 EGOS 082250Z AUTO 21003KT 9999 FEW015/// SCT190/// 03/01 Q0986 3.5mph 3°C 1°C 1.1°C
08/01/23 22:20 EGOS 082220Z AUTO 18004KT 9999 BKN019/// SCT210/// 04/03 Q0986 4.6mph 4°C 3°C 2.7°C
08/01/23 21:50 EGOS 082150Z AUTO 18006KT 9999 OVC024/// 05/02 Q0986 6.9mph 5°C 2°C 3.4°C
08/01/23 20:20 EGOS 082020Z AUTO 20008KT 9999 SCT021/// SCT150/// 05/02 Q0985 9.2mph 5°C 2°C 3.4°C
08/01/23 19:20 EGOS 081920Z AUTO 18008KT 9999 OVC110/// 05/02 Q0985 9.2mph 5°C 2°C 3.4°C
08/01/23 18:50 EGOS 081850Z AUTO 19009KT 9999 FEW110/// OVC180/// 05/02 Q0985 10.4mph 5°C 2°C 3.4°C
08/01/23 18:20 EGOS 081820Z AUTO 18008KT 9999 FEW130/// OVC190/// 05/02 Q0985 9.2mph 5°C 2°C 3.4°C
08/01/23 17:50 EGOS 081750Z AUTO 16007KT 9999 FEW038/// 05/01 Q0985 8.1mph 5°C 1°C 3.1°C
08/01/23 17:20 EGOS 081720Z AUTO 20007KT 9999 FEW170/// 05/01 Q0985 8.1mph 5°C 1°C 3.1°C
08/01/23 16:50 EGOS 081650Z AUTO 20007KT 9999 FEW220/// 06/02 Q0985 8.1mph 6°C 2°C 4.4°C
08/01/23 16:20 EGOS 081620Z AUTO 21006KT 9999 // FEW028/// SCT200/// 06/03 Q0985 6.9mph 6°C 3°C 4.7°C
08/01/23 15:50 EGOS 081550Z AUTO 18003KT 9999 // FEW038/// 05/03 Q0985 3.5mph 5°C 3°C 3.7°C
08/01/23 15:20 EGOS 081520Z AUTO 22005KT 9999 -RA FEW011/// OVC031/// 05/03 Q0985 -RA 5.8mph 5°C 3°C 3.7°C
08/01/23 14:20 EGOS 081420Z AUTO 22008KT 9999 SCT022/// BKN035/// 07/03 Q0985 9.2mph 7°C 3°C 5.7°C
08/01/23 13:50 EGOS 081350Z AUTO 22011KT 9999 OVC019/// 08/04 Q0985 12.7mph 8°C 4°C 7.0°C
08/01/23 13:20 EGOS 081320Z AUTO 21012KT 9999 BKN019/// 07/04 Q0985 13.8mph 7°C 4°C 6.0°C
08/01/23 12:50 EGOS 081250Z AUTO 21012KT 9999 // SCT020/// 07/04 Q0985 13.8mph 7°C 4°C 6.0°C
08/01/23 12:20 EGOS 081220Z AUTO 20013KT 9999 // FEW020/// OVC041/// 07/04 Q0985 15.0mph 7°C 4°C 6.0°C
08/01/23 11:50 EGOS 081150Z AUTO 20016KT 9999 -RA OVC019/// 07/05 Q0986 -RA 18.4mph 7°C 5°C 6.3°C
08/01/23 11:20 EGOS 081120Z AUTO 17017KT 9999 RA FEW013/// OVC024/// 07/05 Q0986 RA 19.6mph 7°C 5°C 6.3°C
08/01/23 10:50 EGOS 081050Z AUTO 17015KT 9999 // OVC026/// 07/04 Q0986 17.3mph 7°C 4°C 6.0°C
08/01/23 10:20 EGOS 081020Z AUTO 17011KT 9999 -RA FEW029/// OVC048/// 06/04 Q0987 -RA 12.7mph 6°C 4°C 5.0°C
08/01/23 09:50 EGOS 080950Z AUTO 16009KT 9999 SCT013/// BKN100/// 06/04 Q0987 10.4mph 6°C 4°C 5.0°C
08/01/23 09:20 EGOS 080920Z AUTO 16008KT 9999 FEW013/// BKN030/// 06/04 Q0988 9.2mph 6°C 4°C 5.0°C
08/01/23 08:50 EGOS 080850Z AUTO 17011KT 9999 FEW037/// SCT047/// BKN110/// 06/04 Q0988 12.7mph 6°C 4°C 5.0°C
08/01/23 08:20 EGOS 080820Z AUTO 17015KT 9999 FEW048/// 05/03 Q0988 17.3mph 5°C 3°C 3.7°C
08/01/23 07:50 EGOS 080750Z AUTO 17010KT 9999 FEW062/// SCT130/// 05/03 Q0988 11.5mph 5°C 3°C 3.7°C
08/01/23 07:20 EGOS 080720Z AUTO 17010KT 9999 NCD 06/03 Q0989 11.5mph 6°C 3°C 4.7°C
08/01/23 06:50 EGOS 080650Z AUTO 17009KT 9999 BKN062/// 06/03 Q0989 10.4mph 6°C 3°C 4.7°C
08/01/23 06:20 EGOS 080620Z AUTO 18009KT 9999 SCT037/// BKN060/// 06/03 Q0990 10.4mph 6°C 3°C 4.7°C
08/01/23 05:50 EGOS 080550Z AUTO 16007KT 9999 FEW023/// OVC036/// 06/04 Q0990 8.1mph 6°C 4°C 5.0°C
08/01/23 05:20 EGOS 080520Z AUTO 11005KT 9999 OVC020/// 06/04 Q0990 5.8mph 6°C 4°C 5.0°C
08/01/23 04:50 EGOS 080450Z AUTO 15004KT 9999 SCT021/// OVC046/// 06/04 Q0990 4.6mph 6°C 4°C 5.0°C
08/01/23 04:20 EGOS 080420Z AUTO 18008KT 9999 FEW024/// SCT063/// 07/03 Q0990 9.2mph 7°C 3°C 5.7°C
08/01/23 03:50 EGOS 080350Z AUTO 19010KT 9999 NCD 07/03 Q0990 11.5mph 7°C 3°C 5.7°C
08/01/23 03:20 EGOS 080320Z AUTO 18008KT 9999 FEW052/// 07/04 Q0990 9.2mph 7°C 4°C 6.0°C
08/01/23 02:50 EGOS 080250Z AUTO 19011KT 9999 // FEW039/// BKN130/// 07/04 Q0990 12.7mph 7°C 4°C 6.0°C
08/01/23 02:20 EGOS 080220Z AUTO 20015KT 9999 // FEW026/// 07/04 Q0990 17.3mph 7°C 4°C 6.0°C
08/01/23 01:50 EGOS 080150Z AUTO 21015KT 9999 // BKN025/// SCT063/// 07/05 Q0990 17.3mph 7°C 5°C 6.3°C
08/01/23 01:20 EGOS 080120Z AUTO 20016KT 6000 RA BKN027/// SCT044/// 08/05 Q0990 RA 18.4mph 8°C 5°C 7.3°C
08/01/23 00:20 EGOS 080020Z AUTO 20014KT 9999 // SCT029/// 08/05 Q0990 16.1mph 8°C 5°C 7.3°C
07/01/23 23:50 EGOS 072350Z AUTO 20017KT 9999 // SCT030/// 08/05 Q0990 19.6mph 8°C 5°C 7.3°C
07/01/23 23:20 EGOS 072320Z AUTO 20018KT 9999 OVC030/// 08/04 Q0990 20.7mph 8°C 4°C 7.0°C
07/01/23 22:50 EGOS 072250Z AUTO 20017KT 9999 NCD 08/05 Q0990 19.6mph 8°C 5°C 7.3°C
07/01/23 22:20 EGOS 072220Z AUTO 20021KT 9999 FEW069/// 08/04 Q0990 24.2mph 8°C 4°C 7.0°C
07/01/23 21:50 EGOS 072150Z AUTO 19018KT 9999 FEW030/// 08/04 Q0990 20.7mph 8°C 4°C 7.0°C
07/01/23 21:20 EGOS 072120Z AUTO 20019KT 9999 // FEW030/// 07/04 Q0990 21.9mph 7°C 4°C 6.0°C
07/01/23 20:50 EGOS 072050Z AUTO 20017KT 9999 // NCD 07/04 Q0990 19.6mph 7°C 4°C 6.0°C
07/01/23 20:20 EGOS 072020Z AUTO 18013KT 9999 -RA OVC023/// 07/04 Q0990 -RA 15.0mph 7°C 4°C 6.0°C
07/01/23 19:50 EGOS 071950Z AUTO 18011KT 9999 SCT027/// 07/04 Q0990 12.7mph 7°C 4°C 6.0°C
07/01/23 19:20 EGOS 071920Z AUTO 18013KT 9999 OVC028/// 07/04 Q0990 15.0mph 7°C 4°C 6.0°C
07/01/23 18:50 EGOS 071850Z AUTO 19014KT 9999 FEW041/// 07/03 Q0990 16.1mph 7°C 3°C 5.7°C
07/01/23 18:20 EGOS 071820Z AUTO 19013KT 9999 // FEW097/// 06/03 Q0990 15.0mph 6°C 3°C 4.7°C
07/01/23 17:50 EGOS 071750Z AUTO 20012KT 9999 // OVC073/// 07/04 Q0990 13.8mph 7°C 4°C 6.0°C
07/01/23 17:20 EGOS 071720Z AUTO 20013G23KT 9999 -RA BKN023/// OVC042/// 08/05 Q0990 -RA 15.0mph 26.5mph 8°C 5°C 7.3°C
07/01/23 16:50 EGOS 071650Z AUTO 20011KT 9999 // FEW023/// BKN062/// 07/05 Q0990 12.7mph 7°C 5°C 6.3°C
07/01/23 16:20 EGOS 071620Z AUTO 21017G28KT 2600 +RA FEW017/// OVC025/// 08/06 Q0990 +RA 19.6mph 32.2mph 8°C 6°C 7.6°C
07/01/23 15:50 EGOS 071550Z AUTO 20013KT 9999 OVC034/// 10/05 Q0989 15.0mph 10°C 5°C 9.3°C
07/01/23 15:20 EGOS 071520Z AUTO 20012KT 9999 OVC030/// 10/05 Q0990 13.8mph 10°C 5°C 9.3°C
07/01/23 14:50 EGOS 071450Z AUTO 19011KT 9999 // OVC032/// 11/05 Q0990 12.7mph 11°C 5°C 10.3°C
07/01/23 14:20 EGOS 071420Z AUTO 20012KT 9999 // BKN029/// BKN042/// 11/05 Q0990 13.8mph 11°C 5°C 10.3°C
07/01/23 13:50 EGOS 071350Z AUTO 20016KT 9999 OVC033/// 11/06 Q0991 18.4mph 11°C 6°C 10.6°C
07/01/23 12:50 EGOS 071250Z AUTO 21013KT 9999 NCD 11/05 Q0991 15.0mph 11°C 5°C 10.3°C
07/01/23 12:20 EGOS 071220Z AUTO 21014KT 9999 FEW027/// 11/06 Q0992 16.1mph 11°C 6°C 10.6°C
07/01/23 11:50 EGOS 071150Z AUTO 22016KT 9999 // SCT029/// 11/06 Q0992 18.4mph 11°C 6°C 10.6°C
07/01/23 11:20 EGOS 071120Z AUTO 19011KT 9999 // FEW053/// 11/07 Q0992 12.7mph 11°C 7°C 11.0°C
07/01/23 10:50 EGOS 071050Z AUTO 21011KT 9999 RA FEW003/// OVC018/// 10/08 Q0992 RA 12.7mph 10°C 8°C 10.4°C
07/01/23 10:20 EGOS 071020Z AUTO 21013G24KT 3700 RA OVC015/// 11/09 Q0992 RA 15.0mph 27.6mph 11°C 9°C 11.8°C
07/01/23 09:50 EGOS 070950Z AUTO 21011KT 9999 -RA SCT012/// BKN037/// BKN059/// 10/09 Q0992 -RA 12.7mph 10°C 9°C 10.8°C
07/01/23 09:20 EGOS 070920Z AUTO 25008KT 0500 +RA OVC006/// 10/09 Q0992 +RA 9.2mph 10°C 9°C 10.8°C
07/01/23 08:50 EGOS 070850Z AUTO 18012KT 8000 RA OVC011/// 11/09 Q0992 RA 13.8mph 11°C 9°C 11.8°C
07/01/23 08:20 EGOS 070820Z AUTO 18017KT 9999 -RA OVC015/// 11/09 Q0992 -RA 19.6mph 11°C 9°C 11.8°C
07/01/23 07:50 EGOS 070750Z AUTO 17014KT 9999 // BKN012/// OVC071/// 11/09 Q0992 16.1mph 11°C 9°C 11.8°C